Time;durP1;ratioP1;P1;durP2;ratioP2;P2;SDS_P1;SDS_P2;PMS_P1;PMS_P2;Temp;Humidity;BMP_temperature;BMP_pressure;BME280_temperature;BME280_humidity;BME280_pressure;Samples;Min_cycle;Max_cycle;Signal;HPM_P1;HPM_P2
2021/03/12 00:02:03;;;;;;;4.57;0.60;;;6.00;99.90;;;;;;5070166;28;20296;-82
2021/03/12 00:04:29;;;;;;;2.33;0.80;;;6.00;99.90;;;;;;5064053;28;20252;-82
2021/03/12 00:06:56;;;;;;;4.23;0.83;;;5.90;99.90;;;;;;5062113;28;20217;-83
2021/03/12 00:09:23;;;;;;;3.23;0.70;;;5.90;99.90;;;;;;5058407;28;20359;-82
2021/03/12 00:11:49;;;;;;;2.63;0.53;;;5.90;99.90;;;;;;5061546;28;20289;-82
2021/03/12 00:14:16;;;;;;;1.70;0.50;;;5.80;99.90;;;;;;5069503;28;20305;-82
2021/03/12 00:16:42;;;;;;;4.13;0.80;;;5.70;99.90;;;;;;5066044;28;20248;-82
2021/03/12 00:19:08;;;;;;;5.07;0.80;;;5.60;99.90;;;;;;5066759;28;20206;-82
2021/03/12 00:21:35;;;;;;;1.40;0.60;;;5.40;99.90;;;;;;5064258;28;20252;-82
2021/03/12 00:24:01;;;;;;;0.97;0.50;;;5.40;99.90;;;;;;5060931;28;20299;-82
2021/03/12 00:26:28;;;;;;;2.10;0.60;;;5.30;99.90;;;;;;5070738;28;20687;-82
2021/03/12 00:28:55;;;;;;;3.13;0.60;;;5.20;99.90;;;;;;5066778;28;20308;-83
2021/03/12 00:31:21;;;;;;;7.40;1.00;;;5.20;99.90;;;;;;5068200;28;20207;-81
2021/03/12 00:33:48;;;;;;;2.23;0.70;;;5.20;99.90;;;;;;5066167;28;20289;-81
2021/03/12 00:36:15;;;;;;;2.50;0.80;;;5.10;99.90;;;;;;5068000;28;20293;-82
2021/03/12 00:38:41;;;;;;;1.90;0.83;;;5.10;99.90;;;;;;5065706;28;20281;-82
2021/03/12 00:41:08;;;;;;;2.30;0.57;;;5.10;99.90;;;;;;5067179;28;20341;-82
2021/03/12 00:43:37;;;;;;;3.47;0.60;;;5.10;99.90;;;;;;5064132;28;20765;-82
2021/03/12 00:46:07;;;;;;;3.53;0.90;;;5.10;99.90;;;;;;5065973;28;20579;-81
2021/03/12 00:48:33;;;;;;;3.37;0.70;;;5.10;99.90;;;;;;5068854;28;20305;-82
2021/03/12 00:51:00;;;;;;;7.03;0.77;;;5.20;99.90;;;;;;5066314;28;20289;-82
2021/03/12 00:53:27;;;;;;;5.63;0.83;;;5.20;99.90;;;;;;5068353;28;20210;-82
2021/03/12 00:55:53;;;;;;;2.87;0.70;;;5.20;99.90;;;;;;5069427;28;20215;-81
2021/03/12 00:58:21;;;;;;;7.30;0.70;;;5.20;99.90;;;;;;5075026;28;20348;-82
2021/03/12 01:00:49;;;;;;;3.70;0.67;;;5.20;99.90;;;;;;5062814;28;20290;-82
2021/03/12 01:03:15;;;;;;;6.70;0.90;;;5.20;99.90;;;;;;5064808;28;20244;-81
2021/03/12 01:05:42;;;;;;;5.87;0.80;;;5.20;99.90;;;;;;5072249;28;20218;-81
2021/03/12 01:08:10;;;;;;;7.18;1.20;;;5.20;99.90;;;;;;5064856;28;20533;-82
2021/03/12 01:10:38;;;;;;;6.37;0.87;;;5.20;99.90;;;;;;5071219;28;20206;-82
2021/03/12 01:13:05;;;;;;;1.93;0.73;;;5.20;99.90;;;;;;5073950;28;20292;-82
2021/03/12 01:15:32;;;;;;;3.10;0.70;;;5.30;99.90;;;;;;5071990;28;20237;-82
2021/03/12 01:17:59;;;;;;;7.63;1.03;;;5.30;99.90;;;;;;5065138;28;20803;-83
2021/03/12 01:20:28;;;;;;;9.87;1.00;;;5.30;99.90;;;;;;5063188;28;20209;-83
2021/03/12 01:22:56;;;;;;;1.50;0.70;;;5.30;99.90;;;;;;5064238;28;20205;-83
2021/03/12 01:25:26;;;;;;;3.43;0.80;;;5.30;99.90;;;;;;5072174;28;20226;-82
2021/03/12 01:27:52;;;;;;;5.33;0.80;;;5.40;99.90;;;;;;5074322;28;20206;-82
2021/03/12 01:30:24;;;;;;;2.10;0.77;;;5.50;99.90;;;;;;5085258;28;20230;-84
2021/03/12 01:32:50;;;;;;;3.23;0.80;;;5.60;99.90;;;;;;5091375;28;20189;-83
2021/03/12 01:35:18;;;;;;;5.37;0.60;;;5.60;99.90;;;;;;5092745;28;20234;-81
2021/03/12 01:37:45;;;;;;;1.93;0.60;;;5.50;99.90;;;;;;5062871;28;20639;-82
2021/03/12 01:40:15;;;;;;;2.83;1.00;;;5.50;99.90;;;;;;5068244;28;20317;-82
2021/03/12 01:42:41;;;;;;;5.87;1.40;;;5.50;99.90;;;;;;5067471;28;20627;-82
2021/03/12 01:45:09;;;;;;;2.23;0.60;;;5.60;99.90;;;;;;5068585;28;20778;-82
2021/03/12 01:47:35;;;;;;;3.07;0.70;;;5.60;99.90;;;;;;5069621;28;20204;-81
2021/03/12 01:50:02;;;;;;;3.23;0.73;;;5.60;99.90;;;;;;5070419;28;20300;-82
2021/03/12 01:52:29;;;;;;;7.90;0.93;;;5.60;99.90;;;;;;5073452;28;20285;-82
2021/03/12 01:54:56;;;;;;;2.57;0.80;;;5.60;99.90;;;;;;5068789;28;20328;-82
2021/03/12 01:57:22;;;;;;;3.20;0.90;;;5.50;99.90;;;;;;5067842;28;20198;-82
2021/03/12 01:59:49;;;;;;;1.10;0.60;;;5.50;99.90;;;;;;5059024;28;20636;-82
2021/03/12 02:02:15;;;;;;;3.13;0.70;;;5.50;99.90;;;;;;5071889;28;20213;-82
2021/03/12 02:04:42;;;;;;;3.87;0.60;;;5.40;99.90;;;;;;5063113;28;20238;-82
2021/03/12 02:07:09;;;;;;;5.00;1.03;;;5.40;99.90;;;;;;5063403;28;20297;-82
2021/03/12 02:09:37;;;;;;;7.30;0.80;;;5.50;99.90;;;;;;5072470;28;20214;-82
2021/03/12 02:12:08;;;;;;;3.13;0.60;;;5.50;99.90;;;;;;5066763;28;20255;-82
2021/03/12 02:14:41;;;;;;;5.53;1.00;;;5.50;99.90;;;;;;5069781;28;20713;-82
2021/03/12 02:17:14;;;;;;;5.40;0.83;;;5.40;99.90;;;;;;5063144;28;20286;-82
2021/03/12 02:20:09;;;;;;;5.90;0.60;;;5.40;99.90;;;;;;5065704;28;20289;-82
2021/03/12 02:22:39;;;;;;;3.63;0.87;;;5.40;99.90;;;;;;5065098;28;20743;-82
2021/03/12 02:25:10;;;;;;;7.33;0.90;;;5.50;99.90;;;;;;5069446;28;20272;-83
2021/03/12 02:27:38;;;;;;;7.20;1.33;;;5.40;99.90;;;;;;5071377;28;20308;-81
2021/03/12 02:30:07;;;;;;;2.27;0.90;;;5.50;99.90;;;;;;5066355;28;20593;-82
2021/03/12 02:32:36;;;;;;;2.50;0.50;;;5.50;99.90;;;;;;5070264;28;20277;-82
2021/03/12 02:35:07;;;;;;;5.77;0.90;;;5.50;99.90;;;;;;5071368;28;20264;-82
2021/03/12 02:37:34;;;;;;;5.25;1.00;;;5.50;99.90;;;;;;5069037;28;20470;-82
2021/03/12 02:40:01;;;;;;;2.57;0.70;;;5.50;99.90;;;;;;5069374;28;20270;-82
2021/03/12 02:42:28;;;;;;;5.90;1.00;;;5.50;99.90;;;;;;5066362;28;20676;-82
2021/03/12 02:45:00;;;;;;;5.20;0.80;;;5.60;99.90;;;;;;5070173;28;20214;-82
2021/03/12 02:47:28;;;;;;;7.07;1.00;;;5.50;99.90;;;;;;5069467;28;20277;-82
2021/03/12 02:56:41;;;;;;;3.70;0.70;;;5.50;99.90;;;;;;5072649;28;20340;-82
2021/03/12 02:59:08;;;;;;;7.07;1.17;;;5.50;99.90;;;;;;5071660;28;20248;-82
2021/03/12 03:01:35;;;;;;;6.83;0.90;;;5.50;99.90;;;;;;5067488;28;20253;-82
2021/03/12 03:04:02;;;;;;;5.57;1.00;;;5.50;99.90;;;;;;5063379;28;20317;-82
2021/03/12 03:06:28;;;;;;;5.27;1.17;;;5.50;99.90;;;;;;5070816;28;20258;-82
2021/03/12 03:08:55;;;;;;;7.93;1.13;;;5.50;99.90;;;;;;5066885;28;20218;-82
2021/03/12 03:11:23;;;;;;;5.47;0.90;;;5.50;99.90;;;;;;5063843;28;20678;-82
2021/03/12 03:13:52;;;;;;;9.70;1.57;;;5.50;99.90;;;;;;5068084;28;20297;-83
2021/03/12 03:16:22;;;;;;;7.13;1.10;;;5.50;99.90;;;;;;5066708;28;20264;-82
2021/03/12 03:18:51;;;;;;;9.37;1.47;;;5.50;99.90;;;;;;5081694;28;20187;-83
2021/03/12 03:21:18;;;;;;;8.30;1.10;;;5.40;99.90;;;;;;5090765;28;20232;-83
2021/03/12 03:23:46;;;;;;;4.00;0.83;;;5.30;99.90;;;;;;5094130;28;20229;-83
2021/03/12 03:26:12;;;;;;;4.57;0.87;;;5.20;99.90;;;;;;5077778;28;20286;-81
2021/03/12 03:28:39;;;;;;;6.33;0.90;;;5.10;99.90;;;;;;5066240;28;20226;-82
2021/03/12 03:31:05;;;;;;;11.77;1.33;;;5.10;99.90;;;;;;5071473;28;20206;-82
2021/03/12 03:33:33;;;;;;;6.67;1.17;;;5.00;99.90;;;;;;5060208;28;20300;-82
2021/03/12 03:36:01;;;;;;;3.10;1.17;;;4.90;99.90;;;;;;5064931;28;20222;-81
2021/03/12 03:38:28;;;;;;;8.83;1.23;;;4.90;99.90;;;;;;5067054;28;20288;-82
2021/03/12 03:40:55;;;;;;;3.87;0.80;;;4.90;99.90;;;;;;5065465;28;20242;-82
2021/03/12 03:43:24;;;;;;;5.63;0.93;;;4.90;99.90;;;;;;5064961;28;20202;-82
2021/03/12 03:45:52;;;;;;;3.73;0.97;;;4.80;99.90;;;;;;5074725;28;20244;-82
2021/03/12 03:48:20;;;;;;;9.30;1.10;;;4.80;99.90;;;;;;5060973;28;20228;-81
2021/03/12 03:50:47;;;;;;;5.23;0.90;;;4.80;99.90;;;;;;5066334;28;20241;-81
2021/03/12 03:53:15;;;;;;;7.17;1.40;;;4.80;99.90;;;;;;5062372;28;20704;-82
2021/03/12 03:55:42;;;;;;;3.70;1.10;;;4.80;99.90;;;;;;5067396;28;20236;-82
2021/03/12 03:58:09;;;;;;;5.53;1.07;;;4.70;99.90;;;;;;5067768;28;20210;-81
2021/03/12 04:00:36;;;;;;;5.57;1.37;;;4.80;99.90;;;;;;5064783;28;20301;-81
2021/03/12 04:03:05;;;;;;;4.13;1.00;;;4.90;99.90;;;;;;5060792;28;20217;-81
2021/03/12 04:05:32;;;;;;;4.97;1.43;;;4.90;99.90;;;;;;5067308;28;20264;-81
2021/03/12 04:08:00;;;;;;;8.07;0.97;;;5.00;99.90;;;;;;5069650;28;20246;-81
2021/03/12 04:10:28;;;;;;;5.83;1.10;;;5.00;99.90;;;;;;5061275;28;20307;-82
2021/03/12 04:12:56;;;;;;;10.73;1.20;;;5.00;99.90;;;;;;5063845;28;20203;-82
2021/03/12 04:15:23;;;;;;;10.43;1.13;;;5.00;99.90;;;;;;5062549;28;20665;-82
2021/03/12 04:17:50;;;;;;;6.25;1.25;;;5.00;99.90;;;;;;5062205;28;20475;-81
2021/03/12 04:20:16;;;;;;;9.57;1.57;;;5.00;99.90;;;;;;5062970;28;20199;-82
2021/03/12 04:22:43;;;;;;;10.63;1.30;;;5.00;99.90;;;;;;5066368;28;20666;-82
2021/03/12 04:25:11;;;;;;;5.57;0.97;;;5.00;99.90;;;;;;5070509;28;20230;-81
2021/03/12 04:27:39;;;;;;;6.70;1.17;;;5.10;99.90;;;;;;5070277;28;20434;-81
2021/03/12 04:30:06;;;;;;;6.87;1.37;;;5.10;99.90;;;;;;5068379;28;20692;-81
2021/03/12 04:32:34;;;;;;;8.03;0.90;;;5.10;99.90;;;;;;5072951;28;20817;-82
2021/03/12 04:35:00;;;;;;;6.20;1.00;;;5.10;99.90;;;;;;5071186;28;20703;-81
2021/03/12 04:37:27;;;;;;;6.80;1.10;;;5.20;99.90;;;;;;5067744;28;20297;-81
2021/03/12 04:39:54;;;;;;;8.20;1.03;;;5.20;99.90;;;;;;5068265;28;20210;-82
2021/03/12 04:42:21;;;;;;;5.10;1.00;;;5.20;99.90;;;;;;5061383;28;20203;-82
2021/03/12 04:44:48;;;;;;;7.80;1.70;;;5.20;99.90;;;;;;5069596;28;20444;-82
2021/03/12 04:47:15;;;;;;;8.37;1.83;;;5.20;99.90;;;;;;5070884;28;20206;-82
2021/03/12 04:49:44;;;;;;;9.87;1.40;;;5.00;99.90;;;;;;5065191;28;20222;-83
2021/03/12 04:52:11;;;;;;;8.73;1.27;;;4.90;99.90;;;;;;5067396;28;20749;-82
2021/03/12 04:54:37;;;;;;;8.13;1.30;;;4.70;99.90;;;;;;5065608;28;20332;-81
2021/03/12 04:57:05;;;;;;;7.30;1.33;;;4.60;99.90;;;;;;5069025;28;20279;-83
2021/03/12 04:59:31;;;;;;;10.20;1.13;;;4.60;99.90;;;;;;5064829;28;20203;-83
2021/03/12 05:01:59;;;;;;;4.10;1.27;;;4.50;99.90;;;;;;5072244;28;20210;-82
2021/03/12 05:04:26;;;;;;;6.63;1.23;;;4.50;99.90;;;;;;5072531;28;20314;-82
2021/03/12 05:06:52;;;;;;;7.83;1.20;;;4.50;99.90;;;;;;5083035;28;20250;-83
2021/03/12 05:09:19;;;;;;;11.17;1.43;;;4.50;99.90;;;;;;5099208;28;20225;-83
2021/03/12 05:11:45;;;;;;;9.93;1.80;;;4.50;99.90;;;;;;5096643;28;20229;-83
2021/03/12 05:14:13;;;;;;;4.67;1.33;;;4.50;99.90;;;;;;5077756;28;20219;-82
2021/03/12 05:16:40;;;;;;;9.80;1.13;;;4.60;99.90;;;;;;5073001;28;20205;-82
2021/03/12 05:19:07;;;;;;;7.00;1.10;;;4.60;99.90;;;;;;5066106;28;20648;-82
2021/03/12 05:21:34;;;;;;;11.10;1.50;;;4.60;99.90;;;;;;5067484;28;20199;-82
2021/03/12 05:24:00;;;;;;;20.37;8.17;;;4.60;99.90;;;;;;5071490;28;20875;-83
2021/03/12 05:26:27;;;;;;;26.47;10.23;;;4.50;99.90;;;;;;5065274;28;20207;-82
2021/03/12 05:28:53;;;;;;;11.73;2.00;;;4.50;99.90;;;;;;5066121;28;20309;-83
2021/03/12 05:31:21;;;;;;;9.97;2.33;;;4.50;99.90;;;;;;5066019;28;20551;-82
2021/03/12 05:33:47;;;;;;;5.70;2.27;;;4.50;99.90;;;;;;5070223;28;20640;-83
2021/03/12 05:36:15;;;;;;;6.53;1.20;;;4.40;99.90;;;;;;5070985;28;21900;-83
2021/03/12 05:38:41;;;;;;;3.73;0.93;;;4.60;99.90;;;;;;5062176;28;20230;-83
2021/03/12 05:41:08;;;;;;;10.07;0.77;;;4.60;99.90;;;;;;5072893;28;20202;-83
2021/03/12 05:43:34;;;;;;;5.70;1.37;;;4.70;99.90;;;;;;5077074;28;20662;-83
2021/03/12 05:46:01;;;;;;;8.63;1.10;;;4.70;99.90;;;;;;5069657;28;20286;-83
2021/03/12 05:48:28;;;;;;;7.03;1.27;;;4.80;99.90;;;;;;5071247;28;20278;-83
2021/03/12 05:50:59;;;;;;;6.33;1.23;;;4.80;99.90;;;;;;5068492;28;20202;-83
2021/03/12 05:53:27;;;;;;;5.70;1.40;;;4.90;99.90;;;;;;5066863;28;20727;-83
2021/03/12 05:55:55;;;;;;;11.10;2.30;;;5.00;99.90;;;;;;5071174;28;20236;-82
2021/03/12 05:58:22;;;;;;;5.27;1.20;;;5.00;99.90;;;;;;5066706;28;20670;-83
2021/03/12 06:00:49;;;;;;;6.13;1.37;;;5.00;99.90;;;;;;5070390;28;20277;-83
2021/03/12 06:03:15;;;;;;;9.03;1.90;;;5.10;99.90;;;;;;5065952;28;20694;-83
2021/03/12 06:05:44;;;;;;;11.93;3.00;;;5.10;99.90;;;;;;5072410;28;20218;-83
2021/03/12 06:08:10;;;;;;;10.87;1.97;;;5.10;99.90;;;;;;5071168;28;20211;-83
2021/03/12 06:10:38;;;;;;;6.37;1.43;;;5.10;99.90;;;;;;5069723;28;20223;-83
2021/03/12 06:13:04;;;;;;;9.97;2.30;;;5.20;99.90;;;;;;5067941;28;20206;-83
2021/03/12 06:15:33;;;;;;;14.53;1.50;;;5.20;99.90;;;;;;5067133;28;20779;-83
2021/03/12 06:18:11;;;;;;;6.13;1.20;;;5.20;99.90;;;;;;5068609;28;20202;-82
2021/03/12 06:20:38;;;;;;;9.10;1.30;;;5.30;99.90;;;;;;5069162;28;20247;-83
2021/03/12 06:23:04;;;;;;;10.53;1.77;;;5.20;99.90;;;;;;5069965;28;20266;-83
2021/03/12 06:25:30;;;;;;;7.63;1.10;;;5.30;99.90;;;;;;5070779;28;20287;-82
2021/03/12 06:28:14;;;;;;;10.47;1.13;;;5.30;99.90;;;;;;5071053;28;20237;-83
2021/03/12 06:30:40;;;;;;;6.57;0.90;;;5.30;99.90;;;;;;5069016;28;20222;-82
2021/03/12 06:33:06;;;;;;;5.37;1.43;;;5.40;99.90;;;;;;5067854;28;20198;-83
2021/03/12 06:35:36;;;;;;;3.80;1.10;;;5.40;99.90;;;;;;5068211;28;20628;-83
2021/03/12 06:38:07;;;;;;;3.67;1.00;;;5.40;99.90;;;;;;5073249;28;20344;-82
2021/03/12 06:40:34;;;;;;;4.10;1.10;;;5.40;99.90;;;;;;5067147;28;20323;-83
2021/03/12 06:43:12;;;;;;;7.23;1.50;;;5.50;99.90;;;;;;5069476;28;20228;-82
2021/03/12 06:46:03;;;;;;;5.23;0.87;;;5.50;99.90;;;;;;5070189;28;20312;-83
2021/03/12 06:48:31;;;;;;;7.23;1.20;;;5.60;99.90;;;;;;5053831;28;20223;-83
2021/03/12 06:50:59;;;;;;;6.60;1.67;;;5.60;99.90;;;;;;5069573;28;20634;-83
2021/03/12 06:53:32;;;;;;;12.43;5.00;;;5.60;99.90;;;;;;5069438;28;20290;-82
2021/03/12 06:56:00;;;;;;;7.10;2.20;;;5.60;99.90;;;;;;5082504;28;21028;-83
2021/03/12 06:58:28;;;;;;;9.87;2.20;;;5.60;99.90;;;;;;5098789;28;20189;-83
2021/03/12 07:00:55;;;;;;;7.53;1.50;;;5.70;99.90;;;;;;5094682;28;20202;-83
2021/03/12 07:03:26;;;;;;;12.73;1.60;;;5.80;99.90;;;;;;5076450;28;20206;-82
2021/03/12 07:06:02;;;;;;;12.57;1.30;;;5.90;99.90;;;;;;5065951;28;20218;-82
2021/03/12 07:08:40;;;;;;;5.13;0.83;;;5.90;99.90;;;;;;5067874;28;20205;-82
2021/03/12 07:11:23;;;;;;;8.77;1.40;;;6.00;99.90;;;;;;5069752;28;20201;-83
2021/03/12 07:13:52;;;;;;;7.97;1.87;;;6.00;99.90;;;;;;5069000;28;20283;-83
2021/03/12 07:16:19;;;;;;;5.17;1.50;;;6.10;99.90;;;;;;5068242;28;20229;-82
2021/03/12 07:18:46;;;;;;;6.57;1.17;;;6.20;99.90;;;;;;5069511;28;20285;-83
2021/03/12 07:21:13;;;;;;;6.70;1.50;;;6.20;99.90;;;;;;5070408;28;20277;-83
2021/03/12 07:23:42;;;;;;;6.83;1.50;;;6.20;99.90;;;;;;5067900;28;20199;-83
2021/03/12 07:26:11;;;;;;;6.53;1.43;;;6.40;99.90;;;;;;5066420;28;20206;-83
2021/03/12 07:28:41;;;;;;;12.10;2.50;;;6.40;99.90;;;;;;5064734;28;20202;-83
2021/03/12 07:31:10;;;;;;;6.67;1.37;;;6.40;99.90;;;;;;5069772;28;21650;-83
2021/03/12 07:33:38;;;;;;;7.57;1.67;;;6.50;99.90;;;;;;5067166;28;20206;-82
2021/03/12 07:36:05;;;;;;;7.00;1.83;;;6.50;99.90;;;;;;5069704;28;20198;-82
2021/03/12 07:38:35;;;;;;;8.53;1.60;;;6.60;99.90;;;;;;5069260;28;20209;-83
2021/03/12 07:41:05;;;;;;;4.90;1.60;;;6.60;99.90;;;;;;5064946;28;20198;-82
2021/03/12 07:43:36;;;;;;;8.77;1.37;;;6.50;99.90;;;;;;5064048;28;20281;-83
2021/03/12 07:46:03;;;;;;;10.37;1.03;;;6.70;99.90;;;;;;5069464;28;20262;-82
2021/03/12 07:48:32;;;;;;;4.97;1.20;;;6.70;99.90;;;;;;5069808;28;20202;-83
2021/03/12 07:51:11;;;;;;;7.80;1.20;;;6.80;99.90;;;;;;5066228;28;20583;-83
2021/03/12 07:53:49;;;;;;;7.90;2.17;;;7.00;99.90;;;;;;5068677;28;20190;-83
2021/03/12 07:56:16;;;;;;;7.17;1.10;;;7.10;99.90;;;;;;5068765;28;20656;-83
2021/03/12 07:59:03;;;;;;;12.37;1.90;;;7.40;99.90;;;;;;5068446;28;20208;-83
2021/03/12 08:01:47;;;;;;;4.40;1.27;;;8.30;99.90;;;;;;5065537;28;20281;-82
2021/03/12 08:04:32;;;;;;;8.77;1.27;;;9.00;99.90;;;;;;5072229;28;20360;-83
2021/03/12 08:07:00;;;;;;;7.10;1.17;;;9.60;99.90;;;;;;5074170;28;20225;-82
2021/03/12 08:09:36;;;;;;;4.43;1.23;;;9.60;99.90;;;;;;5073286;28;20301;-82
2021/03/12 08:12:03;;;;;;;8.87;1.40;;;9.70;99.90;;;;;;5066855;28;20654;-82
2021/03/12 08:14:32;;;;;;;6.77;0.90;;;10.00;99.90;;;;;;5070301;28;20814;-84
2021/03/12 08:17:18;;;;;;;7.57;1.37;;;10.10;99.90;;;;;;5071969;28;20678;-83
2021/03/12 08:19:52;;;;;;;7.70;1.17;;;10.30;99.90;;;;;;5070530;28;20601;-83
2021/03/12 08:22:44;;;;;;;8.40;1.50;;;10.80;99.90;;;;;;5065635;28;20198;-83
2021/03/12 08:25:12;;;;;;;5.57;1.40;;;10.60;99.90;;;;;;5070461;28;20230;-83
2021/03/12 08:27:44;;;;;;;6.73;1.10;;;10.80;99.90;;;;;;5066797;28;20439;-83
2021/03/12 08:30:12;;;;;;;6.23;1.03;;;10.40;99.90;;;;;;5072815;28;20218;-82
2021/03/12 08:32:41;;;;;;;7.30;1.20;;;10.00;99.90;;;;;;5072256;28;20211;-82
2021/03/12 08:35:37;;;;;;;12.73;2.13;;;9.50;99.90;;;;;;5072272;28;20245;-82
2021/03/12 08:38:05;;;;;;;5.70;1.93;;;9.10;99.90;;;;;;5070877;28;20285;-83
2021/03/12 08:40:32;;;;;;;6.93;1.27;;;9.30;99.90;;;;;;5074125;28;20211;-83
2021/03/12 08:43:01;;;;;;;6.73;1.37;;;9.80;99.90;;;;;;5069408;28;20222;-81
2021/03/12 08:45:35;;;;;;;8.03;1.33;;;10.60;99.90;;;;;;5073556;28;20685;-82
2021/03/12 08:48:06;;;;;;;4.17;1.20;;;11.80;99.90;;;;;;5080277;28;20663;-83
2021/03/12 08:50:36;;;;;;;6.23;1.20;;;13.00;99.90;;;;;;5069600;28;20305;-83
2021/03/12 08:53:04;;;;;;;5.83;1.40;;;12.60;99.90;;;;;;5069296;28;20203;-83
2021/03/12 08:55:31;;;;;;;5.83;1.37;;;12.20;99.90;;;;;;5067533;28;20595;-83
2021/03/12 08:58:18;;;;;;;7.23;1.53;;;12.20;99.90;;;;;;5070395;28;20202;-84
2021/03/12 09:00:45;;;;;;;3.77;1.10;;;11.60;99.90;;;;;;5067841;28;20238;-83
2021/03/12 09:03:16;;;;;;;8.20;1.67;;;11.70;99.90;;;;;;5062555;28;20214;-83
2021/03/12 09:05:44;;;;;;;5.97;1.30;;;11.70;99.90;;;;;;5069532;28;20222;-83
2021/03/12 09:08:13;;;;;;;6.10;1.57;;;11.20;99.90;;;;;;5066528;28;20244;-82
2021/03/12 09:10:40;;;;;;;7.37;1.10;;;10.80;99.90;;;;;;5067028;28;20222;-83
2021/03/12 09:13:14;;;;;;;8.23;1.50;;;10.30;99.90;;;;;;5071556;28;20210;-82
2021/03/12 09:15:40;;;;;;;6.87;1.90;;;9.70;99.90;;;;;;5073068;28;20275;-82
2021/03/12 09:18:07;;;;;;;8.00;1.27;;;9.40;99.90;;;;;;5072102;28;20686;-83
2021/03/12 09:20:34;;;;;;;7.67;1.37;;;9.10;99.90;;;;;;5071068;28;20373;-82
2021/03/12 09:23:01;;;;;;;6.63;1.67;;;9.10;99.90;;;;;;5063873;28;20709;-83
2021/03/12 09:26:03;;;;;;;6.40;1.50;;;9.10;99.90;;;;;;5072731;28;20309;-83
2021/03/12 09:36:06;;;;;;;5.67;1.20;;;9.60;99.90;;;;;;5060310;28;20269;-83
2021/03/12 09:45:36;;;;;;;7.90;1.50;;;10.10;99.90;;;;;;5061304;28;20648;-82
2021/03/12 09:48:34;;;;;;;6.77;1.30;;;10.10;99.90;;;;;;5062463;28;20245;-82
2021/03/12 09:51:28;;;;;;;6.77;1.13;;;10.20;99.90;;;;;;5060884;28;21009;-83
2021/03/12 09:57:27;;;;;;;7.60;0.97;;;10.30;99.90;;;;;;5045552;28;20222;-82
2021/03/12 09:59:53;;;;;;;4.83;1.17;;;10.30;99.90;;;;;;5066944;28;20674;-83
2021/03/12 10:02:21;;;;;;;6.40;1.10;;;10.30;99.90;;;;;;5073472;28;20226;-83
2021/03/12 10:04:56;;;;;;;8.30;1.53;;;10.10;99.90;;;;;;5060112;28;20218;-82
2021/03/12 10:07:23;;;;;;;6.20;1.30;;;9.80;99.90;;;;;;5071887;28;20211;-84
2021/03/12 10:09:50;;;;;;;3.80;0.63;;;9.70;99.90;;;;;;5069412;28;20769;-83
2021/03/12 10:12:18;;;;;;;5.87;1.10;;;9.50;99.90;;;;;;5070474;28;20692;-83
2021/03/12 10:14:46;;;;;;;6.27;1.10;;;9.30;99.90;;;;;;5067408;28;20226;-83
2021/03/12 10:17:20;;;;;;;5.17;0.87;;;9.40;99.90;;;;;;5066642;28;20198;-83
2021/03/12 10:19:50;;;;;;;8.83;1.13;;;9.60;99.90;;;;;;5072271;28;20201;-83
2021/03/12 10:22:19;;;;;;;4.63;1.10;;;9.80;99.90;;;;;;5063359;28;20673;-83
2021/03/12 10:24:47;;;;;;;4.90;1.00;;;9.90;99.90;;;;;;5063933;28;20238;-83
2021/03/12 10:27:21;;;;;;;2.33;0.93;;;10.10;99.90;;;;;;5073073;28;20233;-83
2021/03/12 10:29:48;;;;;;;4.63;1.03;;;10.10;99.90;;;;;;5077851;28;20207;-84
2021/03/12 10:32:15;;;;;;;7.67;1.17;;;9.80;99.90;;;;;;5087815;28;20198;-84
2021/03/12 10:34:47;;;;;;;4.37;1.07;;;9.60;99.90;;;;;;5099063;28;20202;-85
2021/03/12 10:37:15;;;;;;;4.80;0.90;;;9.60;99.90;;;;;;5080129;28;20198;-83
2021/03/12 10:39:46;;;;;;;6.40;1.10;;;9.80;99.90;;;;;;5071141;28;20293;-83
2021/03/12 10:42:13;;;;;;;7.73;1.10;;;10.00;99.90;;;;;;5068281;28;20626;-83
2021/03/12 10:44:51;;;;;;;5.93;1.10;;;10.20;99.90;;;;;;5065578;28;20238;-83
2021/03/12 10:47:17;;;;;;;5.53;1.20;;;10.20;99.90;;;;;;5064592;28;20301;-84
2021/03/12 10:49:46;;;;;;;7.27;1.10;;;10.30;99.90;;;;;;5069361;28;20282;-82
2021/03/12 10:52:25;;;;;;;4.17;1.10;;;10.20;99.90;;;;;;5062675;28;20205;-83
2021/03/12 10:54:52;;;;;;;5.33;1.00;;;10.10;99.90;;;;;;5064453;28;20229;-84
2021/03/12 10:57:18;;;;;;;5.87;1.10;;;9.90;99.90;;;;;;5060734;28;20286;-83
2021/03/12 10:59:56;;;;;;;9.37;1.23;;;9.90;99.90;;;;;;5062890;28;20195;-83
2021/03/12 11:02:32;;;;;;;6.40;1.10;;;10.00;99.90;;;;;;5066590;28;20214;-83
2021/03/12 11:04:59;;;;;;;5.63;1.13;;;10.10;99.90;;;;;;5071497;28;20308;-83
2021/03/12 11:07:25;;;;;;;6.90;1.00;;;10.40;99.90;;;;;;5068299;28;20207;-83
2021/03/12 11:09:52;;;;;;;11.40;1.23;;;10.60;99.90;;;;;;5071501;28;20249;-84
2021/03/12 11:12:18;;;;;;;4.07;1.40;;;10.40;99.90;;;;;;5069607;28;20198;-83
2021/03/12 11:14:46;;;;;;;6.67;1.80;;;10.20;99.90;;;;;;5067536;28;20724;-83
2021/03/12 11:17:13;;;;;;;7.70;1.50;;;10.00;99.90;;;;;;5067602;28;20281;-84
2021/03/12 11:19:39;;;;;;;4.77;0.80;;;10.10;99.90;;;;;;5072402;28;20248;-83
2021/03/12 11:22:07;;;;;;;4.40;0.90;;;10.10;99.90;;;;;;5069217;28;20255;-83
2021/03/12 11:24:33;;;;;;;4.60;1.03;;;10.30;99.90;;;;;;5064819;28;20254;-84
2021/03/12 11:27:00;;;;;;;7.83;1.40;;;10.40;99.90;;;;;;5067075;28;20644;-83
2021/03/12 11:29:28;;;;;;;7.93;1.87;;;10.60;99.90;;;;;;5068633;28;20352;-82
2021/03/12 11:31:54;;;;;;;3.77;1.20;;;10.60;99.90;;;;;;5068858;28;20206;-83
2021/03/12 11:34:21;;;;;;;4.70;0.90;;;10.40;99.90;;;;;;5066923;28;20246;-83
2021/03/12 11:36:47;;;;;;;5.10;1.30;;;10.30;99.90;;;;;;5066436;28;20620;-83
2021/03/12 11:39:14;;;;;;;4.73;1.23;;;10.20;99.90;;;;;;5070158;28;20293;-82
2021/03/12 11:41:40;;;;;;;6.53;1.20;;;10.20;99.90;;;;;;5062799;28;20686;-82
2021/03/12 11:44:07;;;;;;;7.20;1.50;;;10.30;99.90;;;;;;5066887;28;20305;-82
2021/03/12 11:46:34;;;;;;;3.40;1.00;;;10.50;99.90;;;;;;5067519;28;20281;-82
2021/03/12 11:49:00;;;;;;;7.20;1.10;;;10.50;99.90;;;;;;5067215;28;20210;-82
2021/03/12 11:51:26;;;;;;;4.27;0.80;;;10.40;99.90;;;;;;5069150;28;20680;-82
2021/03/12 11:53:53;;;;;;;5.80;0.87;;;10.30;99.90;;;;;;5066300;28;20285;-83
2021/03/12 11:56:20;;;;;;;7.27;1.10;;;10.40;99.90;;;;;;5067731;28;20231;-83
2021/03/12 11:58:47;;;;;;;4.20;1.30;;;10.50;99.90;;;;;;5071934;28;20248;-82
2021/03/12 12:01:13;;;;;;;3.70;0.97;;;10.40;99.90;;;;;;5070103;28;20191;-83
2021/03/12 12:03:39;;;;;;;6.07;1.00;;;10.30;99.90;;;;;;5070472;28;20294;-84
2021/03/12 12:06:06;;;;;;;3.77;0.67;;;10.60;99.90;;;;;;5070556;28;20241;-82
2021/03/12 12:08:32;;;;;;;6.47;1.87;;;10.80;99.90;;;;;;5066712;28;20277;-83
2021/03/12 12:10:58;;;;;;;4.10;0.90;;;10.90;99.90;;;;;;5071098;28;20254;-82
2021/03/12 12:13:26;;;;;;;4.83;1.07;;;10.90;99.90;;;;;;5071484;28;20226;-83
2021/03/12 12:15:54;;;;;;;2.30;0.80;;;11.00;99.90;;;;;;5074464;28;20269;-83
2021/03/12 12:18:21;;;;;;;5.83;1.17;;;11.10;99.90;;;;;;5084581;28;20182;-84
2021/03/12 12:20:48;;;;;;;5.07;1.10;;;10.80;99.90;;;;;;5099220;28;20196;-84
2021/03/12 12:23:14;;;;;;;4.47;1.10;;;11.00;99.90;;;;;;5088478;28;20188;-83
2021/03/12 12:25:41;;;;;;;4.67;1.23;;;11.30;99.90;;;;;;5068426;28;20351;-82
2021/03/12 12:28:09;;;;;;;7.10;1.13;;;11.20;99.90;;;;;;5072018;28;20323;-82
2021/03/12 12:30:38;;;;;;;5.50;1.27;;;10.80;99.90;;;;;;5071366;28;20225;-82
2021/03/12 12:33:04;;;;;;;6.40;1.17;;;10.40;99.90;;;;;;5067312;28;20594;-83
2021/03/12 12:35:31;;;;;;;7.13;1.10;;;10.60;99.90;;;;;;5070556;28;20226;-82
2021/03/12 12:37:57;;;;;;;5.70;1.00;;;10.90;99.90;;;;;;5066523;28;20543;-82
2021/03/12 12:40:25;;;;;;;9.57;1.10;;;10.90;99.90;;;;;;5068735;28;20203;-82
2021/03/12 12:42:52;;;;;;;7.03;1.77;;;11.00;99.90;;;;;;5067870;28;20199;-83
2021/03/12 12:45:21;;;;;;;5.20;1.23;;;10.90;99.90;;;;;;5080836;28;20236;-84
2021/03/12 12:47:48;;;;;;;5.60;2.00;;;11.00;99.90;;;;;;5065653;28;20206;-83
2021/03/12 12:50:15;;;;;;;12.67;3.13;;;10.90;99.90;;;;;;5070302;28;20316;-84
2021/03/12 12:52:42;;;;;;;5.50;1.70;;;10.80;99.90;;;;;;5072821;28;20233;-83
2021/03/12 12:55:10;;;;;;;8.53;1.03;;;10.60;99.90;;;;;;5075637;28;20329;-83
2021/03/12 12:57:37;;;;;;;8.83;2.40;;;10.30;99.90;;;;;;5070203;28;20623;-84
2021/03/12 13:00:05;;;;;;;6.23;1.20;;;10.10;99.90;;;;;;5075691;28;20201;-83
2021/03/12 13:02:31;;;;;;;4.20;1.20;;;10.20;99.90;;;;;;5073880;28;20237;-82
2021/03/12 13:04:58;;;;;;;11.03;2.20;;;10.50;99.90;;;;;;5066339;28;20230;-83
2021/03/12 13:07:25;;;;;;;9.53;3.60;;;10.80;99.90;;;;;;5070617;28;20571;-82
2021/03/12 13:09:51;;;;;;;9.03;2.53;;;10.90;99.90;;;;;;5072928;28;20226;-83
2021/03/12 13:12:17;;;;;;;8.47;3.97;;;11.00;99.90;;;;;;5071934;28;20224;-82
2021/03/12 13:14:44;;;;;;;13.33;1.63;;;11.30;99.90;;;;;;5070252;28;20707;-82
2021/03/12 13:17:10;;;;;;;11.63;4.90;;;11.30;99.90;;;;;;5075285;28;20198;-83
2021/03/12 13:19:37;;;;;;;18.13;3.97;;;11.30;99.90;;;;;;5070316;28;20252;-83
2021/03/12 13:22:06;;;;;;;7.47;2.30;;;11.30;99.90;;;;;;5072598;28;20202;-83
2021/03/12 13:24:32;;;;;;;12.20;4.17;;;11.30;99.90;;;;;;5071430;28;20226;-82
2021/03/12 13:26:58;;;;;;;19.17;6.80;;;11.30;99.90;;;;;;5069976;28;20298;-82